Time;durP1;ratioP1;P1;durP2;ratioP2;P2;SDS_P1;SDS_P2;PMS_P1;PMS_P2;Temp;Humidity;BMP_temperature;BMP_pressure;BME280_temperature;BME280_humidity;BME280_pressure;Samples;Min_cycle;Max_cycle;Signal;HPM_P1;HPM_P2
2022/07/21 00:03:21;;;;;;;7.47;4.78;;;;;;;;;;10108320;29;20436;-88
2022/07/21 00:08:24;;;;;;;6.93;5.20;;;;;;;;;;10105617;29;20436;-89
2022/07/21 00:13:26;;;;;;;7.33;4.90;;;;;;;;;;10105274;29;20682;-87
2022/07/21 00:18:29;;;;;;;7.47;5.68;;;;;;;;;;10106237;29;20440;-88
2022/07/21 00:23:32;;;;;;;7.82;5.15;;;;;;;;;;10105864;29;20417;-87
2022/07/21 00:28:34;;;;;;;9.85;5.40;;;;;;;;;;10102596;29;20893;-87
2022/07/21 00:33:36;;;;;;;10.32;6.32;;;;;;;;;;10129705;23;20427;-88
2022/07/21 00:38:40;;;;;;;9.82;6.20;;;;;;;;;;10161926;29;20418;-88
2022/07/21 00:43:41;;;;;;;11.43;6.50;;;;;;;;;;10176867;29;20423;-88
2022/07/21 00:48:43;;;;;;;9.13;6.55;;;;;;;;;;10159649;29;20415;-87
2022/07/21 00:53:47;;;;;;;7.80;5.97;;;;;;;;;;10160374;29;20435;-88
2022/07/21 00:58:49;;;;;;;10.90;5.88;;;;;;;;;;10162297;29;20434;-89
2022/07/21 01:03:51;;;;;;;7.90;6.35;;;;;;;;;;10160813;29;20919;-87
2022/07/21 01:08:55;;;;;;;9.95;6.35;;;;;;;;;;10161585;29;20428;-88
2022/07/21 01:13:57;;;;;;;9.53;6.13;;;;;;;;;;10161039;29;20433;-87
2022/07/21 01:18:59;;;;;;;8.40;5.95;;;;;;;;;;10161934;29;20439;-87
2022/07/21 01:24:04;;;;;;;10.60;7.00;;;;;;;;;;10160555;29;20427;-88
2022/07/21 01:29:06;;;;;;;8.95;6.75;;;;;;;;;;10163079;29;20427;-88
2022/07/21 01:34:08;;;;;;;9.80;7.88;;;;;;;;;;10161553;29;20779;-88
2022/07/21 01:44:33;;;;;;;10.73;7.70;;;;;;;;;;10136675;29;20396;-87
2022/07/21 01:49:34;;;;;;;11.60;7.50;;;;;;;;;;10161930;29;20419;-88
2022/07/21 01:54:38;;;;;;;10.18;7.53;;;;;;;;;;10160902;29;20430;-89
2022/07/21 01:59:39;;;;;;;9.88;7.75;;;;;;;;;;10167523;29;21057;-87
2022/07/21 02:04:41;;;;;;;8.70;7.53;;;;;;;;;;10166317;29;20429;-88
2022/07/21 02:09:45;;;;;;;9.07;7.28;;;;;;;;;;10165439;29;20428;-89
2022/07/21 02:14:46;;;;;;;11.15;7.82;;;;;;;;;;10170419;29;20417;-87
2022/07/21 02:19:48;;;;;;;12.15;7.20;;;;;;;;;;10170641;29;20772;-87
2022/07/21 02:24:51;;;;;;;7.83;7.03;;;;;;;;;;10171118;29;20467;-86
2022/07/21 02:29:53;;;;;;;10.65;7.28;;;;;;;;;;10171609;29;20792;-87
2022/07/21 02:34:55;;;;;;;7.47;6.77;;;;;;;;;;10169338;29;20419;-86
2022/07/21 02:39:59;;;;;;;7.90;6.65;;;;;;;;;;10170101;29;20434;-87
2022/07/21 02:45:02;;;;;;;8.15;7.10;;;;;;;;;;10170695;29;20438;-87
2022/07/21 02:50:04;;;;;;;9.10;7.13;;;;;;;;;;10164102;29;20954;-89
2022/07/21 02:55:09;;;;;;;8.43;6.93;;;;;;;;;;10167533;29;20434;-87
2022/07/21 03:00:12;;;;;;;8.43;7.60;;;;;;;;;;10168364;29;20410;-87
2022/07/21 03:05:14;;;;;;;7.65;6.97;;;;;;;;;;10171003;29;20437;-87
2022/07/21 03:10:17;;;;;;;10.70;7.20;;;;;;;;;;10165676;29;20434;-88
2022/07/21 03:15:19;;;;;;;9.02;8.00;;;;;;;;;;10159378;29;20764;-86
2022/07/21 03:20:22;;;;;;;8.18;7.32;;;;;;;;;;10165637;29;20777;-89
2022/07/21 03:25:26;;;;;;;11.17;8.33;;;;;;;;;;10160560;29;20504;-88
2022/07/21 03:30:28;;;;;;;10.52;8.48;;;;;;;;;;10166213;29;20425;-88
2022/07/21 03:35:30;;;;;;;10.07;8.40;;;;;;;;;;10157881;29;20431;-88
2022/07/21 03:40:36;;;;;;;10.57;8.80;;;;;;;;;;10159279;29;20550;-88
2022/07/21 03:45:38;;;;;;;10.38;9.05;;;;;;;;;;10157765;29;20437;-87
2022/07/21 03:50:42;;;;;;;10.30;9.27;;;;;;;;;;10153696;29;20485;-88
2022/07/21 03:55:45;;;;;;;10.73;8.70;;;;;;;;;;10147935;29;20437;-88
2022/07/21 04:00:47;;;;;;;8.98;8.07;;;;;;;;;;10149564;29;20490;-90
2022/07/21 04:05:49;;;;;;;8.93;8.03;;;;;;;;;;10146780;29;20432;-87
2022/07/21 04:10:53;;;;;;;10.82;8.10;;;;;;;;;;10166013;29;20715;-88
2022/07/21 04:15:55;;;;;;;10.10;8.10;;;;;;;;;;10161975;29;20776;-88
2022/07/21 04:20:56;;;;;;;8.18;7.32;;;;;;;;;;10161578;29;21703;-87
2022/07/21 04:26:00;;;;;;;8.60;7.47;;;;;;;;;;10168780;29;20417;-88
2022/07/21 04:31:02;;;;;;;10.60;7.45;;;;;;;;;;10165426;29;20438;-88
2022/07/21 04:36:04;;;;;;;8.47;7.57;;;;;;;;;;10164488;29;20931;-87
2022/07/21 04:41:08;;;;;;;11.93;7.63;;;;;;;;;;10159956;29;20425;-88
2022/07/21 04:46:10;;;;;;;8.57;7.45;;;;;;;;;;10158410;29;20432;-87
2022/07/21 04:51:12;;;;;;;9.95;7.43;;;;;;;;;;10164377;29;20431;-88
2022/07/21 04:56:15;;;;;;;7.75;6.95;;;;;;;;;;10165063;29;20430;-88
2022/07/21 05:01:18;;;;;;;8.48;6.82;;;;;;;;;;10157525;29;20796;-88
2022/07/21 05:06:20;;;;;;;9.02;8.00;;;;;;;;;;10163679;29;20513;-89
2022/07/21 05:11:23;;;;;;;9.20;7.53;;;;;;;;;;10167565;29;20828;-88
2022/07/21 05:16:25;;;;;;;8.90;7.85;;;;;;;;;;10166629;29;20919;-87
2022/07/21 05:21:27;;;;;;;12.73;8.45;;;;;;;;;;10159248;29;20434;-88
2022/07/21 05:26:30;;;;;;;13.02;9.32;;;;;;;;;;10159712;29;20760;-89
2022/07/21 05:31:32;;;;;;;9.73;8.05;;;;;;;;;;10165257;29;20429;-89
2022/07/21 05:36:34;;;;;;;8.70;7.80;;;;;;;;;;10168810;29;20428;-88
2022/07/21 05:41:37;;;;;;;10.15;7.60;;;;;;;;;;10171469;29;20424;-87
2022/07/21 05:46:39;;;;;;;9.85;7.72;;;;;;;;;;10167233;29;20426;-88
2022/07/21 05:51:41;;;;;;;10.82;7.40;;;;;;;;;;10169355;29;20729;-87
2022/07/21 05:56:44;;;;;;;9.23;7.50;;;;;;;;;;10165277;29;20413;-88
2022/07/21 06:01:46;;;;;;;8.33;7.50;;;;;;;;;;10162961;29;20421;-87
2022/07/21 06:06:48;;;;;;;7.70;6.90;;;;;;;;;;10168689;29;20519;-88
2022/07/21 06:11:51;;;;;;;8.00;7.20;;;;;;;;;;10181961;29;20412;-86
2022/07/21 06:16:54;;;;;;;9.50;7.25;;;;;;;;;;10169303;29;20450;-87
2022/07/21 06:21:55;;;;;;;10.90;7.78;;;;;;;;;;10172189;29;20478;-87
2022/07/21 06:26:59;;;;;;;10.40;8.00;;;;;;;;;;10187076;29;20415;-86
2022/07/21 06:32:00;;;;;;;9.55;8.02;;;;;;;;;;10178567;29;20417;-87
2022/07/21 06:37:02;;;;;;;9.90;7.40;;;;;;;;;;10185684;29;20418;-87
2022/07/21 06:42:07;;;;;;;9.70;7.10;;;;;;;;;;10180850;29;20407;-89
2022/07/21 06:47:09;;;;;;;8.80;6.85;;;;;;;;;;10170467;29;20432;-88
2022/07/21 06:52:11;;;;;;;8.48;6.28;;;;;;;;;;10178285;29;20430;-89
2022/07/21 06:57:14;;;;;;;9.63;6.57;;;;;;;;;;10181724;29;20414;-77
2022/07/21 07:02:16;;;;;;;9.35;6.30;;;;;;;;;;10168064;29;20415;-77
2022/07/21 07:07:18;;;;;;;7.97;6.07;;;;;;;;;;10186556;29;20421;-77
2022/07/21 07:12:21;;;;;;;8.25;5.90;;;;;;;;;;10187736;29;20444;-77
2022/07/21 07:17:23;;;;;;;8.63;5.53;;;;;;;;;;10170596;29;20992;-77
2022/07/21 07:22:26;;;;;;;9.18;6.00;;;;;;;;;;10183220;29;20422;-77
2022/07/21 07:27:29;;;;;;;8.77;6.07;;;;;;;;;;10189119;29;20412;-77
2022/07/21 07:32:31;;;;;;;8.37;5.40;;;;;;;;;;10172241;29;20433;-76
2022/07/21 07:37:34;;;;;;;5.82;4.90;;;;;;;;;;10163392;29;20431;-77
2022/07/21 07:42:39;;;;;;;6.43;5.03;;;;;;;;;;10184900;29;20417;-77
2022/07/21 07:47:41;;;;;;;6.65;5.80;;;;;;;;;;10187635;29;20436;-75
2022/07/21 07:52:44;;;;;;;7.97;5.15;;;;;;;;;;10180588;29;20433;-76
2022/07/21 07:57:48;;;;;;;7.40;5.10;;;;;;;;;;10190415;29;20859;-88
2022/07/21 08:02:50;;;;;;;6.55;5.00;;;;;;;;;;10169682;29;20557;-87
2022/07/21 08:07:52;;;;;;;5.87;5.00;;;;;;;;;;10156194;29;20515;-87
2022/07/21 08:12:56;;;;;;;5.57;4.87;;;;;;;;;;10159145;29;20514;-88
2022/07/21 08:17:58;;;;;;;8.50;5.10;;;;;;;;;;10169019;29;20443;-88
2022/07/21 08:22:59;;;;;;;7.55;4.55;;;;;;;;;;10183880;29;20445;-88
2022/07/21 08:28:03;;;;;;;7.38;4.60;;;;;;;;;;10175791;29;20959;-89
2022/07/21 08:33:05;;;;;;;5.60;4.50;;;;;;;;;;10177134;29;20429;-88
2022/07/21 08:38:11;;;;;;;5.75;4.63;;;;;;;;;;10182210;29;20415;-87
2022/07/21 08:43:15;;;;;;;7.50;4.35;;;;;;;;;;10179239;29;20420;-88
2022/07/21 08:48:23;;;;;;;8.37;4.83;;;;;;;;;;10173970;29;20446;-89
2022/07/21 08:53:28;;;;;;;6.20;4.20;;;;;;;;;;10160228;29;20439;-90
2022/07/21 08:58:31;;;;;;;4.90;4.40;;;;;;;;;;10170367;29;20888;-90
2022/07/21 09:03:33;;;;;;;5.70;4.20;;;;;;;;;;10177833;29;20424;-87
2022/07/21 09:08:37;;;;;;;5.68;4.00;;;;;;;;;;10179497;29;20987;-89
2022/07/21 09:13:42;;;;;;;8.25;3.90;;;;;;;;;;10175654;29;20557;-88
2022/07/21 09:18:51;;;;;;;4.90;3.92;;;;;;;;;;10179431;29;20411;-88
2022/07/21 09:23:53;;;;;;;5.97;3.50;;;;;;;;;;10183910;29;20423;-88
2022/07/21 09:29:11;;;;;;;6.23;3.70;;;;;;;;;;10181630;29;20420;-88
2022/07/21 09:34:15;;;;;;;5.50;4.10;;;;;;;;;;10179421;29;20444;-89
2022/07/21 09:39:17;;;;;;;6.30;3.80;;;;;;;;;;10181238;29;20791;-88
2022/07/21 09:44:31;;;;;;;3.88;3.58;;;;;;;;;;10182452;29;20410;-89
2022/07/21 09:49:33;;;;;;;5.72;3.55;;;;;;;;;;10188354;29;20426;-89
2022/07/21 09:54:35;;;;;;;6.03;3.93;;;;;;;;;;10171800;29;20442;-88
2022/07/21 09:59:40;;;;;;;4.35;3.20;;;;;;;;;;10163709;29;20713;-87
2022/07/21 10:04:43;;;;;;;5.15;3.25;;;;;;;;;;10166487;29;20424;-89
2022/07/21 10:09:45;;;;;;;3.90;3.43;;;;;;;;;;10169354;29;20514;-88
2022/07/21 10:14:49;;;;;;;5.93;3.57;;;;;;;;;;10165528;29;20459;-89
2022/07/21 10:20:02;;;;;;;3.85;3.00;;;;;;;;;;10165778;29;20427;-88
2022/07/21 10:25:05;;;;;;;5.47;3.37;;;;;;;;;;10159423;29;20496;-89
2022/07/21 10:30:10;;;;;;;6.10;5.50;;;;;;;;;;10151915;29;20421;-88
2022/07/21 10:35:28;;;;;;;6.22;4.85;;;;;;;;;;10162644;28;20438;-89
2022/07/21 10:40:38;;;;;;;4.33;3.40;;;;;;;;;;10169116;29;20423;-89
2022/07/21 10:45:43;;;;;;;4.37;3.80;;;;;;;;;;10184790;29;20429;-89
2022/07/21 10:50:51;;;;;;;4.72;4.22;;;;;;;;;;10154589;29;20430;-90
2022/07/21 10:55:55;;;;;;;5.72;4.43;;;;;;;;;;10162515;29;20436;-88
2022/07/21 11:01:01;;;;;;;4.65;3.95;;;;;;;;;;10158650;29;20423;-88
2022/07/21 11:06:19;;;;;;;4.40;4.00;;;;;;;;;;10167895;29;20419;-90
2022/07/21 11:11:24;;;;;;;5.43;4.33;;;;;;;;;;10164814;29;20421;-89
2022/07/21 11:17:08;;;;;;;7.10;4.40;;;;;;;;;;10163281;29;20436;-90
2022/07/21 11:22:16;;;;;;;6.85;4.95;;;;;;;;;;10165657;29;20441;-90
2022/07/21 11:27:20;;;;;;;7.38;5.07;;;;;;;;;;10161816;29;20427;-91
2022/07/21 11:32:23;;;;;;;6.17;5.10;;;;;;;;;;10162074;29;20515;-89
2022/07/21 11:37:30;;;;;;;5.40;4.60;;;;;;;;;;10147910;29;20431;-90
2022/07/21 11:42:33;;;;;;;5.75;4.57;;;;;;;;;;10142711;29;20411;-90
2022/07/21 11:47:37;;;;;;;6.00;5.07;;;;;;;;;;10153858;29;22155;-90
2022/07/21 11:52:43;;;;;;;6.37;4.90;;;;;;;;;;10145223;29;20425;-89
2022/07/21 11:57:46;;;;;;;5.72;4.90;;;;;;;;;;10151097;29;20421;-89
2022/07/21 12:02:48;;;;;;;6.97;4.82;;;;;;;;;;10156807;29;20416;-88
2022/07/21 12:07:53;;;;;;;8.25;5.10;;;;;;;;;;10159738;29;20425;-88
2022/07/21 12:13:00;;;;;;;10.60;5.30;;;;;;;;;;10161584;29;20570;-89
2022/07/21 12:18:04;;;;;;;5.20;4.70;;;;;;;;;;10159501;29;20409;-89
2022/07/21 12:23:21;;;;;;;5.15;4.65;;;;;;;;;;10168215;29;20502;-88
2022/07/21 12:28:42;;;;;;;5.07;4.57;;;;;;;;;;10146874;29;20429;-88
2022/07/21 12:33:44;;;;;;;5.43;4.70;;;;;;;;;;10166054;29;20435;-87
2022/07/21 12:38:50;;;;;;;5.20;4.70;;;;;;;;;;10168050;29;20422;-89
2022/07/21 12:43:56;;;;;;;5.25;4.75;;;;;;;;;;10163666;23;20445;-87
2022/07/21 12:49:05;;;;;;;5.88;4.70;;;;;;;;;;10149604;29;20419;-87
2022/07/21 12:54:08;;;;;;;5.80;4.70;;;;;;;;;;10153472;29;20435;-87
2022/07/21 12:59:14;;;;;;;5.30;4.10;;;;;;;;;;10152852;29;20415;-87
2022/07/21 13:04:15;;;;;;;6.97;4.63;;;;;;;;;;10151659;29;21011;-89
2022/07/21 13:09:19;;;;;;;6.10;4.40;;;;;;;;;;10148791;29;20444;-88
2022/07/21 13:14:20;;;;;;;6.60;4.50;;;;;;;;;;10147214;29;20491;-86
2022/07/21 13:19:22;;;;;;;4.93;4.40;;;;;;;;;;10135599;29;20423;-88
2022/07/21 13:24:25;;;;;;;6.17;4.30;;;;;;;;;;10127820;29;20429;-89
2022/07/21 13:29:27;;;;;;;5.47;4.97;;;;;;;;;;10129942;29;20428;-88
2022/07/21 13:34:29;;;;;;;5.50;4.72;;;;;;;;;;10139345;29;20429;-88
2022/07/21 13:39:32;;;;;;;5.15;4.65;;;;;;;;;;10133508;29;20429;-87
2022/07/21 13:44:34;;;;;;;5.37;4.87;;;;;;;;;;10126612;29;20424;-88
2022/07/21 13:49:36;;;;;;;6.25;4.95;;;;;;;;;;10132809;29;20422;-89
2022/07/21 13:54:39;;;;;;;6.63;5.03;;;;;;;;;;10141289;29;20435;-88
2022/07/21 13:59:43;;;;;;;5.40;4.90;;;;;;;;;;10140647;29;20424;-87
2022/07/21 14:04:44;;;;;;;5.33;4.83;;;;;;;;;;10142532;29;21023;-88
2022/07/21 14:09:48;;;;;;;5.57;4.72;;;;;;;;;;10149698;29;20425;-88
2022/07/21 14:14:50;;;;;;;6.85;4.82;;;;;;;;;;10148172;29;20540;-88
2022/07/21 14:19:51;;;;;;;5.60;5.00;;;;;;;;;;10149999;29;20462;-85
2022/07/21 14:30:14;;;;;;;5.68;4.80;;;;;;;;;;10148061;29;20900;-88
2022/07/21 14:35:18;;;;;;;5.40;4.85;;;;;;;;;;10154455;29;20435;-88
2022/07/21 14:40:22;;;;;;;5.65;4.95;;;;;;;;;;10157002;29;20510;-88
2022/07/21 14:45:24;;;;;;;5.03;4.60;;;;;;;;;;10159397;29;20904;-86
2022/07/21 14:50:27;;;;;;;7.13;4.95;;;;;;;;;;10158662;29;20415;-89
2022/07/21 14:55:31;;;;;;;6.00;5.00;;;;;;;;;;10158843;29;20427;-89
2022/07/21 15:00:33;;;;;;;5.15;4.65;;;;;;;;;;10151549;29;20405;-87
2022/07/21 15:05:34;;;;;;;7.28;4.80;;;;;;;;;;10145088;29;20424;-88
2022/07/21 15:10:38;;;;;;;4.90;4.40;;;;;;;;;;10147576;29;20416;-88
2022/07/21 15:15:40;;;;;;;5.20;4.25;;;;;;;;;;10142249;29;20443;-88
2022/07/21 15:20:42;;;;;;;6.57;4.15;;;;;;;;;;10142257;29;20411;-87
2022/07/21 15:25:45;;;;;;;4.88;4.28;;;;;;;;;;10142171;29;20411;-88
2022/07/21 15:30:48;;;;;;;5.77;4.10;;;;;;;;;;10146065;29;20439;-87
2022/07/21 15:35:53;;;;;;;6.07;4.47;;;;;;;;;;10144177;29;20795;-88
2022/07/21 15:40:56;;;;;;;6.28;4.35;;;;;;;;;;10139123;29;20441;-87
2022/07/21 15:45:58;;;;;;;5.03;4.50;;;;;;;;;;10146790;29;20917;-87
2022/07/21 15:51:00;;;;;;;4.82;4.43;;;;;;;;;;10145057;29;20423;-88
2022/07/21 15:56:03;;;;;;;5.35;4.50;;;;;;;;;;10142133;29;20530;-88
2022/07/21 16:01:05;;;;;;;5.35;4.38;;;;;;;;;;10139747;29;20490;-88
2022/07/21 16:06:07;;;;;;;6.30;4.32;;;;;;;;;;10144363;29;20444;-88
2022/07/21 16:11:11;;;;;;;4.70;4.30;;;;;;;;;;10141599;29;20424;-87
2022/07/21 16:16:12;;;;;;;5.68;4.22;;;;;;;;;;10148400;29;20453;-87
2022/07/21 16:21:15;;;;;;;5.75;4.15;;;;;;;;;;10147876;29;20427;-88
2022/07/21 16:26:18;;;;;;;6.20;4.32;;;;;;;;;;10147309;29;20427;-87
2022/07/21 16:31:21;;;;;;;6.60;4.57;;;;;;;;;;10137177;29;20445;-90
2022/07/21 16:36:23;;;;;;;5.72;4.35;;;;;;;;;;10146549;29;20450;-89
2022/07/21 16:41:27;;;;;;;5.05;4.30;;;;;;;;;;10149364;29;20433;-89
2022/07/21 16:46:28;;;;;;;6.65;4.15;;;;;;;;;;10141869;29;20436;-84
2022/07/21 16:51:30;;;;;;;4.60;4.20;;;;;;;;;;10126485;29;20423;-87
2022/07/21 16:56:34;;;;;;;4.50;4.10;;;;;;;;;;10144519;29;20431;-82
2022/07/21 17:01:35;;;;;;;5.93;4.63;;;;;;;;;;10137012;29;21259;-87
2022/07/21 17:06:38;;;;;;;6.18;4.88;;;;;;;;;;10141791;29;20435;-85
2022/07/21 17:11:42;;;;;;;7.38;5.00;;;;;;;;;;10144469;29;20493;-84
2022/07/21 17:16:43;;;;;;;5.63;5.13;;;;;;;;;;10149921;29;20440;-86
2022/07/21 17:21:45;;;;;;;5.97;5.22;;;;;;;;;;10152623;29;20787;-87
2022/07/21 17:26:49;;;;;;;7.32;5.20;;;;;;;;;;10145373;29;20526;-86
2022/07/21 17:31:50;;;;;;;7.90;5.80;;;;;;;;;;10153852;29;20423;-91
2022/07/21 17:36:52;;;;;;;6.75;6.10;;;;;;;;;;10162745;29;20947;-93
2022/07/21 17:41:56;;;;;;;9.52;6.18;;;;;;;;;;10151253;29;20451;-92
2022/07/21 17:46:57;;;;;;;7.10;6.03;;;;;;;;;;10157754;29;20426;-88
2022/07/21 17:51:59;;;;;;;8.43;6.00;;;;;;;;;;10160670;29;20419;-90
2022/07/21 18:02:22;;;;;;;6.90;6.13;;;;;;;;;;10154352;29;20404;-90
2022/07/21 18:07:24;;;;;;;7.03;6.32;;;;;;;;;;10147565;29;20437;-88
2022/07/21 18:12:28;;;;;;;7.22;6.55;;;;;;;;;;10145301;29;20427;-87
2022/07/21 18:17:30;;;;;;;7.73;6.70;;;;;;;;;;10154188;29;20433;-83
2022/07/21 18:22:31;;;;;;;9.27;7.30;;;;;;;;;;10151376;29;20423;-78
2022/07/21 18:27:38;;;;;;;9.65;7.47;;;;;;;;;;10152554;29;20475;-94
2022/07/21 18:32:40;;;;;;;9.83;7.23;;;;;;;;;;10145837;29;20429;-87
2022/07/21 18:37:42;;;;;;;9.27;7.75;;;;;;;;;;10147443;29;20467;-86
2022/07/21 18:42:46;;;;;;;9.20;7.30;;;;;;;;;;10147904;29;20429;-87
2022/07/21 18:47:48;;;;;;;8.70;7.47;;;;;;;;;;10144688;29;20807;-88
2022/07/21 18:52:49;;;;;;;7.63;6.75;;;;;;;;;;10145601;29;21170;-86
2022/07/21 18:57:53;;;;;;;7.80;7.00;;;;;;;;;;10158196;29;20439;-89
2022/07/21 19:02:55;;;;;;;7.20;6.40;;;;;;;;;;10151162;29;20464;-89
2022/07/21 19:07:56;;;;;;;7.80;6.45;;;;;;;;;;10151647;29;20431;-89
2022/07/21 19:13:00;;;;;;;7.20;6.20;;;;;;;;;;10161127;29;20438;-88
2022/07/21 19:18:01;;;;;;;6.85;6.15;;;;;;;;;;10148789;29;20511;-88
2022/07/21 19:23:04;;;;;;;6.30;5.50;;;;;;;;;;10145815;29;20431;-87
2022/07/21 19:28:07;;;;;;;6.68;5.72;;;;;;;;;;10153266;29;20485;-87
2022/07/21 19:33:09;;;;;;;6.40;5.80;;;;;;;;;;10151842;29;20421;-87
2022/07/21 19:38:12;;;;;;;7.28;6.40;;;;;;;;;;10141505;29;20427;-87
2022/07/21 19:43:15;;;;;;;8.02;6.40;;;;;;;;;;10147785;29;20415;-88
2022/07/21 19:48:17;;;;;;;7.80;7.00;;;;;;;;;;10148807;29;20437;-86
2022/07/21 19:53:19;;;;;;;8.40;7.38;;;;;;;;;;10145757;29;20511;-86
2022/07/21 19:58:22;;;;;;;11.07;7.82;;;;;;;;;;10145454;29;20452;-88
2022/07/21 20:03:24;;;;;;;10.63;9.50;;;;;;;;;;10144109;29;20440;-86
2022/07/21 20:08:26;;;;;;;10.30;9.20;;;;;;;;;;10149404;29;20455;-88
2022/07/21 20:13:29;;;;;;;10.00;9.00;;;;;;;;;;10143411;29;20427;-89
2022/07/21 20:18:31;;;;;;;11.15;9.60;;;;;;;;;;10147650;29;20431;-88
2022/07/21 20:23:33;;;;;;;10.52;9.05;;;;;;;;;;10149565;29;20431;-91
2022/07/21 20:28:37;;;;;;;12.18;9.18;;;;;;;;;;10143708;29;20471;-89
2022/07/21 20:33:39;;;;;;;11.63;9.45;;;;;;;;;;10142687;29;20467;-88
2022/07/21 20:38:41;;;;;;;10.60;9.50;;;;;;;;;;10144980;29;20450;-88
2022/07/21 20:43:44;;;;;;;10.70;9.60;;;;;;;;;;10149313;29;20483;-89
2022/07/21 20:48:46;;;;;;;11.57;10.00;;;;;;;;;;10141138;29;20431;-88
2022/07/21 20:53:48;;;;;;;11.15;9.95;;;;;;;;;;10147426;29;20428;-86
2022/07/21 20:58:51;;;;;;;11.75;9.68;;;;;;;;;;10144739;29;20916;-89
2022/07/21 21:03:53;;;;;;;13.63;9.57;;;;;;;;;;10146378;29;20431;-88
2022/07/21 21:08:55;;;;;;;9.83;8.83;;;;;;;;;;10153036;29;20450;-88
2022/07/21 21:13:58;;;;;;;11.88;8.75;;;;;;;;;;10147738;29;20911;-88
2022/07/21 21:19:00;;;;;;;10.35;9.15;;;;;;;;;;10143316;29;20493;-88
2022/07/21 21:24:02;;;;;;;9.43;8.38;;;;;;;;;;10143868;29;20435;-85
2022/07/21 21:29:05;;;;;;;9.73;8.77;;;;;;;;;;10144829;29;20446;-88
2022/07/21 21:34:07;;;;;;;11.60;8.45;;;;;;;;;;10146384;29;21540;-88
2022/07/21 21:39:09;;;;;;;9.77;8.57;;;;;;;;;;10146989;29;20427;-89
2022/07/21 21:44:12;;;;;;;11.63;9.15;;;;;;;;;;10150541;29;20924;-88
2022/07/21 21:49:14;;;;;;;9.83;8.83;;;;;;;;;;10150326;29;20512;-89
2022/07/21 21:54:18;;;;;;;11.32;9.00;;;;;;;;;;10152350;29;20435;-89
2022/07/21 21:59:22;;;;;;;11.60;8.80;;;;;;;;;;10142703;29;20980;-87
2022/07/21 22:04:24;;;;;;;10.27;8.77;;;;;;;;;;10148540;29;20419;-87
2022/07/21 22:09:26;;;;;;;11.57;9.40;;;;;;;;;;10144085;29;20800;-88
2022/07/21 22:14:30;;;;;;;11.77;8.97;;;;;;;;;;10148068;29;20940;-89
2022/07/21 22:19:31;;;;;;;11.95;8.75;;;;;;;;;;10152751;29;20514;-88
2022/07/21 22:24:33;;;;;;;10.47;8.77;;;;;;;;;;10147316;29;20776;-89
2022/07/21 22:29:36;;;;;;;10.50;8.73;;;;;;;;;;10154513;29;20494;-88
2022/07/21 22:34:38;;;;;;;9.73;8.20;;;;;;;;;;10154940;29;20466;-88
2022/07/21 22:39:40;;;;;;;11.50;8.70;;;;;;;;;;10151268;29;20419;-88
2022/07/21 22:44:43;;;;;;;10.20;9.20;;;;;;;;;;10151895;29;20503;-88
2022/07/21 22:49:45;;;;;;;12.55;8.95;;;;;;;;;;10154883;29;20420;-88
2022/07/21 22:54:48;;;;;;;12.88;8.90;;;;;;;;;;10156578;29;20442;-87
2022/07/21 22:59:51;;;;;;;10.83;9.03;;;;;;;;;;10151492;29;20416;-88
2022/07/21 23:04:53;;;;;;;11.17;8.93;;;;;;;;;;10150367;29;20412;-89
2022/07/21 23:09:55;;;;;;;10.77;8.60;;;;;;;;;;10145254;29;20510;-89
2022/07/21 23:14:58;;;;;;;9.83;8.20;;;;;;;;;;10160402;29;20895;-88
2022/07/21 23:20:00;;;;;;;10.00;8.05;;;;;;;;;;10152916;29;20407;-88
2022/07/21 23:25:02;;;;;;;8.77;7.68;;;;;;;;;;10139685;29;20416;-88
2022/07/21 23:30:07;;;;;;;11.30;8.70;;;;;;;;;;10150637;29;20429;-88
2022/07/21 23:35:09;;;;;;;10.38;8.82;;;;;;;;;;10142969;29;20506;-88
2022/07/21 23:40:12;;;;;;;14.40;9.25;;;;;;;;;;10151727;29;20424;-89
2022/07/21 23:45:15;;;;;;;14.55;9.38;;;;;;;;;;10145408;29;20411;-88
2022/07/21 23:50:17;;;;;;;13.52;10.05;;;;;;;;;;10139515;29;20536;-88
2022/07/21 23:55:19;;;;;;;11.30;10.00;;;;;;;;;;10148637;29;20430;-89
